Farmingdale, New York
Current Conditions -  °F | °C
As of 7:53 PM on Thursday 18 Dec 2014 (Local Time) from KFRG Reporting Station
Clear Clear  
Wind Chill: 33°   Ceiling: Unl
Heat Index: 38°   Visibility: 10mi
Dew Point: 26°   Wind: 6mph
Humidity: 62%   Direction: 310°NW
Pressure: 29.96"   Gusts: NA
Location:  40.73°N, 73.44°W
Report Text: KFRG 190053Z 31005KT 10SM CLR 03/M03 A2996 RMK AO2 SLP144 T00331033
Loading
Personal Weather Stations






























Interactive Weather Map New forecast layout! Learn more

10-Day Weather Forecast

Advertisements
Track Severe Weather on mobile